Time;durP1;ratioP1;P1;durP2;ratioP2;P2;SDS_P1;SDS_P2;PMS_P1;PMS_P2;Temp;Humidity;BMP_temperature;BMP_pressure;BME280_temperature;BME280_humidity;BME280_pressure;Samples;Min_cycle;Max_cycle;Signal;HPM_P1;HPM_P2
2023/10/18 00:03:12;;;;;;;112.00;86.00;;;;;;;-0.94;96.42;99771.73;435322;1254;139863;-65
2023/10/18 00:13:21;;;;;;;110.10;81.10;;;;;;;-1.08;96.46;99771.38;435220;1257;140309;-65
2023/10/18 00:23:28;;;;;;;111.10;85.60;;;;;;;-1.24;96.46;99766.77;435411;1257;139116;-65
2023/10/18 00:33:35;;;;;;;121.90;87.60;;;;;;;-1.34;96.76;99758.98;435385;1255;139219;-65
2023/10/18 00:43:44;;;;;;;113.90;79.30;;;;;;;-1.43;97.22;99757.21;435679;1254;139806;-65
2023/10/18 00:53:51;;;;;;;108.90;79.60;;;;;;;-1.51;97.07;99748.90;436043;1259;141421;-64
2023/10/18 01:04:02;;;;;;;91.40;70.10;;;;;;;-1.62;97.20;99745.59;435524;1254;139304;-65
2023/10/18 01:14:08;;;;;;;100.40;75.90;;;;;;;-1.70;97.43;99742.77;435676;1257;140139;-64
2023/10/18 01:24:18;;;;;;;103.60;74.80;;;;;;;-1.80;97.40;99731.19;436057;1257;139758;-64
2023/10/18 01:34:23;;;;;;;;;;;;;;;-1.92;97.33;99721.38;435424;1259;139113;-65
2023/10/18 01:44:30;;;;;;;92.30;70.20;;;;;;;-2.02;97.34;99714.95;435223;1254;125269;-65
2023/10/18 01:54:38;;;;;;;91.80;70.50;;;;;;;-2.12;97.29;99711.28;435355;1258;138910;-66
2023/10/18 02:04:45;;;;;;;86.60;62.90;;;;;;;-2.22;97.42;99710.70;435479;1260;138964;-66
2023/10/18 02:15:01;;;;;;;85.20;62.80;;;;;;;-2.27;97.61;99704.58;435603;1254;138945;-65
2023/10/18 02:25:09;;;;;;;79.00;57.20;;;;;;;-2.33;97.95;99705.48;435222;1258;138884;-65
2023/10/18 02:35:18;;;;;;;72.10;53.20;;;;;;;-2.39;98.02;99702.45;435328;1255;139723;-65
2023/10/18 02:45:30;;;;;;;68.00;52.60;;;;;;;-2.41;98.18;99700.92;435538;1257;138915;-66
2023/10/18 02:55:38;;;;;;;73.40;55.50;;;;;;;-2.44;98.55;99694.27;435249;1255;139179;-65
2023/10/18 03:05:44;;;;;;;65.10;48.70;;;;;;;-2.53;98.49;99688.52;435841;1254;139417;-65
2023/10/18 03:16:06;;;;;;;66.50;48.90;;;;;;;-2.54;98.74;99686.29;435280;1254;139503;-66
2023/10/18 03:26:12;;;;;;;61.90;45.60;;;;;;;-2.53;99.08;99683.03;435320;1255;139006;-65
2023/10/18 03:36:20;;;;;;;61.10;45.00;;;;;;;-2.58;99.09;99674.85;435257;1257;138984;-66
2023/10/18 03:46:38;;;;;;;58.40;43.70;;;;;;;-2.65;99.15;99670.45;435257;1257;138845;-64
2023/10/18 03:56:47;;;;;;;58.80;41.80;;;;;;;-2.75;98.80;99658.71;435571;1254;139641;-64
2023/10/18 04:06:58;;;;;;;65.00;46.50;;;;;;;-2.84;98.92;99645.92;435215;1254;138975;-65
2023/10/18 04:17:12;;;;;;;59.80;43.80;;;;;;;-2.91;98.89;99644.28;435779;1257;139404;-65
2023/10/18 04:27:18;;;;;;;62.90;45.40;;;;;;;-2.96;99.14;99637.11;435851;1254;141181;-66
2023/10/18 04:37:24;;;;;;;62.10;44.50;;;;;;;-3.01;99.22;99625.84;435350;1254;139557;-65
2023/10/18 04:47:33;;;;;;;57.70;44.00;;;;;;;-3.06;99.27;99625.72;435453;1254;138849;-65
2023/10/18 04:57:40;;;;;;;60.00;44.40;;;;;;;-3.14;99.12;99624.73;435831;1254;140004;-65
2023/10/18 05:07:48;;;;;;;56.40;40.30;;;;;;;-3.20;99.36;99637.63;435253;1257;139038;-65
2023/10/18 05:17:57;;;;;;;55.10;41.00;;;;;;;-3.16;99.76;99642.39;435521;1255;138984;-65
2023/10/18 05:28:11;;;;;;;55.40;39.60;;;;;;;-2.98;100.00;99653.23;435070;1257;139199;-69
2023/10/18 05:38:40;;;;;;;54.30;39.80;;;;;;;-2.80;100.00;99653.61;435245;1254;139132;-68
2023/10/18 05:48:44;;;;;;;;;;;;;;;-2.42;100.00;99648.98;435140;1254;139005;-69
2023/10/18 05:59:15;;;;;;;48.00;39.50;;;;;;;-1.88;100.00;99643.08;435450;1254;125913;-68
2023/10/18 06:09:26;;;;;;;50.40;41.80;;;;;;;-1.19;100.00;99638.70;435430;1254;213778;-63
2023/10/18 06:19:33;;;;;;;41.40;31.50;;;;;;;1.76;100.00;99635.63;435584;1254;139227;-70
2023/10/18 06:29:41;;;;;;;36.50;27.30;;;;;;;6.15;100.00;99633.18;436229;1254;138956;-65
2023/10/18 06:39:47;;;;;;;29.30;24.60;;;;;;;10.13;97.49;99623.92;435565;1254;138643;-71
2023/10/18 06:49:58;;;;;;;28.30;22.20;;;;;;;13.95;93.65;99627.86;435031;1254;176683;-66
2023/10/18 07:00:30;;;;;;;38.90;28.20;;;;;;;17.70;87.01;99603.52;435367;1254;139370;-69
2023/10/18 07:10:53;;;;;;;47.70;31.70;;;;;;;20.57;78.32;99600.01;435519;1257;138528;-65
2023/10/18 07:21:19;;;;;;;26.70;23.90;;;;;;;22.18;71.32;99598.13;435612;1254;138363;-66
2023/10/18 07:31:32;;;;;;;32.30;23.10;;;;;;;24.26;66.29;99591.13;435297;1254;138329;-69
2023/10/18 07:41:39;;;;;;;22.40;20.20;;;;;;;25.68;61.56;99584.62;435321;1254;138727;-69
2023/10/18 07:51:49;;;;;;;24.20;18.20;;;;;;;27.46;58.46;99575.74;436259;1257;139010;-70
2023/10/18 08:02:12;;;;;;;17.50;15.70;;;;;;;28.36;48.39;99568.95;436272;1257;139083;-68
2023/10/18 08:12:30;;;;;;;16.40;14.80;;;;;;;28.85;44.55;99574.84;435488;1257;138840;-64
2023/10/18 08:22:39;;;;;;;14.00;12.70;;;;;;;30.69;42.39;99573.58;435180;1257;138317;-65
2023/10/18 08:32:45;;;;;;;12.30;11.20;;;;;;;31.26;38.88;99562.27;435386;1257;138679;-68
2023/10/18 08:42:57;;;;;;;12.30;11.20;;;;;;;32.02;36.12;99558.02;435239;1254;138321;-67
2023/10/18 08:53:04;;;;;;;11.40;10.40;;;;;;;33.04;34.98;99553.88;435312;1257;138291;-68
2023/10/18 09:03:10;;;;;;;12.80;11.50;;;;;;;32.47;33.68;99550.89;435336;1254;138895;-64
2023/10/18 09:13:37;;;;;;;12.80;11.60;;;;;;;28.32;32.54;99550.63;435361;1256;138491;-69
2023/10/18 09:23:43;;;;;;;12.50;9.90;;;;;;;22.94;34.82;99558.57;435781;1257;140965;-67
2023/10/18 09:33:49;;;;;;;9.70;8.70;;;;;;;19.70;37.50;99556.02;435634;1257;138304;-69
2023/10/18 09:44:00;;;;;;;17.20;9.80;;;;;;;17.53;39.14;99559.86;435867;1254;138479;-67
2023/10/18 09:54:12;;;;;;;9.70;8.10;;;;;;;15.90;40.51;99562.27;435293;1254;138740;-65
2023/10/18 10:04:18;;;;;;;8.90;7.90;;;;;;;14.55;41.80;99557.39;435806;1255;138001;-70
2023/10/18 10:14:29;;;;;;;10.40;9.40;;;;;;;13.51;43.41;99553.56;435284;1255;138667;-67
2023/10/18 10:24:42;;;;;;;11.50;8.30;;;;;;;12.77;44.52;99547.44;435431;1257;139278;-65
2023/10/18 10:35:10;;;;;;;8.50;7.30;;;;;;;12.26;45.54;99537.73;435605;1257;138574;-66
2023/10/18 10:45:35;;;;;;;6.60;5.70;;;;;;;11.97;46.19;99533.46;435374;1254;138412;-65
2023/10/18 10:55:43;;;;;;;6.80;6.20;;;;;;;11.64;46.38;99526.44;444998;1255;138098;-66
2023/10/18 11:05:51;;;;;;;;;;;;;;;11.22;46.75;99508.12;435318;1254;138546;-66
2023/10/18 11:15:56;;;;;;;;;;;;;;;10.92;47.36;99490.10;435716;1257;124575;-66
2023/10/18 11:26:09;;;;;;;7.90;6.30;;;;;;;10.77;47.72;99476.60;435965;1257;125319;-66
2023/10/18 11:36:19;;;;;;;9.60;6.30;;;;;;;10.58;48.36;99469.77;435623;1254;138498;-65
2023/10/18 11:46:25;;;;;;;6.80;5.60;;;;;;;10.47;49.10;99467.00;435709;1254;138091;-66
2023/10/18 11:56:38;;;;;;;7.90;5.50;;;;;;;10.37;49.57;99453.63;435468;1254;138287;-67
2023/10/18 12:06:49;;;;;;;6.10;5.10;;;;;;;10.26;49.77;99446.60;435655;1255;138641;-66
2023/10/18 12:16:55;;;;;;;6.70;5.30;;;;;;;10.23;50.05;99437.70;435800;1257;138214;-66
2023/10/18 12:27:15;;;;;;;9.10;5.10;;;;;;;10.24;50.40;99432.05;435313;1256;138464;-67
2023/10/18 12:37:21;;;;;;;7.20;5.20;;;;;;;10.23;50.36;99420.73;435683;1255;138606;-65
2023/10/18 12:47:28;;;;;;;14.10;11.40;;;;;;;10.17;50.40;99406.40;435699;1257;138356;-72
2023/10/18 12:57:34;;;;;;;6.80;6.20;;;;;;;10.14;50.56;99396.86;438627;1254;138342;-79
2023/10/18 13:07:43;;;;;;;7.50;5.70;;;;;;;10.07;50.82;99390.84;438383;1256;138303;-66
2023/10/18 13:17:51;;;;;;;8.90;6.70;;;;;;;10.07;51.20;99377.19;438291;1254;138244;-68
2023/10/18 13:28:05;;;;;;;7.10;6.40;;;;;;;10.16;51.65;99364.19;436663;1254;138047;-69
2023/10/18 13:38:15;;;;;;;7.50;5.50;;;;;;;10.21;51.42;99356.52;437880;1257;138368;-74
2023/10/18 13:48:23;;;;;;;9.40;7.60;;;;;;;10.12;51.52;99347.13;438035;1256;140795;-68
2023/10/18 13:58:30;;;;;;;8.40;5.30;;;;;;;10.00;51.85;99337.95;436890;1256;138383;-74
2023/10/18 14:08:36;;;;;;;7.00;6.40;;;;;;;9.91;51.74;99326.27;438210;1257;137919;-74
2023/10/18 14:18:43;;;;;;;9.80;5.70;;;;;;;9.80;51.96;99315.79;437762;1257;138663;-79
2023/10/18 14:28:49;;;;;;;9.20;6.80;;;;;;;9.66;52.29;99313.02;437092;1256;137934;-66
2023/10/18 14:38:56;;;;;;;6.70;5.90;;;;;;;9.47;52.55;99305.65;435598;1255;138442;-65
2023/10/18 14:49:02;;;;;;;9.20;6.00;;;;;;;9.26;52.78;99294.74;435539;1256;138120;-65
2023/10/18 14:59:08;;;;;;;8.60;6.90;;;;;;;9.00;53.21;99290.95;435425;1256;138505;-64
2023/10/18 15:09:16;;;;;;;7.30;6.50;;;;;;;8.71;54.09;99285.23;435406;1254;137952;-65
2023/10/18 15:19:22;;;;;;;9.50;6.60;;;;;;;8.35;54.76;99284.33;435373;1254;138247;-64
2023/10/18 15:29:27;;;;;;;16.00;9.30;;;;;;;7.93;55.51;99282.13;435569;1257;137890;-65
2023/10/18 15:39:33;;;;;;;19.00;9.70;;;;;;;7.43;56.90;99279.83;435532;1257;138406;-65
2023/10/18 15:49:40;;;;;;;20.00;10.60;;;;;;;6.92;58.18;99282.13;435352;1256;137880;-63
2023/10/18 15:59:46;;;;;;;15.30;9.10;;;;;;;6.36;59.70;99288.81;435427;1258;139012;-65
2023/10/18 16:09:53;;;;;;;13.30;8.20;;;;;;;5.85;61.27;99286.98;435283;1256;137959;-64
2023/10/18 16:20:01;;;;;;;20.80;10.50;;;;;;;5.38;62.76;99282.66;435764;1257;138749;-64
2023/10/18 16:30:11;;;;;;;19.70;12.10;;;;;;;4.88;63.74;99277.30;435428;1256;139342;-64
2023/10/18 16:40:18;;;;;;;16.20;12.20;;;;;;;4.43;64.99;99278.08;435953;1256;138890;-69
2023/10/18 16:50:26;;;;;;;17.10;11.60;;;;;;;4.07;66.39;99284.61;435390;1256;139604;-69
2023/10/18 17:00:32;;;;;;;14.10;10.50;;;;;;;3.73;67.78;99285.32;435716;1256;138719;-68
2023/10/18 17:10:38;;;;;;;17.80;13.60;;;;;;;3.41;68.32;99283.32;435599;1256;138673;-65
2023/10/18 17:20:44;;;;;;;21.60;15.40;;;;;;;3.09;69.64;99282.95;435780;1256;140320;-62
2023/10/18 17:31:06;;;;;;;28.10;21.80;;;;;;;2.80;70.09;99275.20;436233;1256;138763;-62
2023/10/18 17:41:13;;;;;;;27.50;18.50;;;;;;;2.60;71.64;99264.70;436021;1254;138852;-64
2023/10/18 17:51:21;;;;;;;36.60;22.40;;;;;;;2.37;72.20;99254.27;435642;1258;139402;-62
2023/10/18 18:01:28;;;;;;;27.10;20.40;;;;;;;2.18;73.07;99245.30;435821;1257;139467;-61
2023/10/18 18:11:35;;;;;;;39.20;24.70;;;;;;;1.95;73.36;99241.40;435673;1257;138892;-62
2023/10/18 18:21:41;;;;;;;31.60;25.00;;;;;;;1.76;74.06;99235.98;435507;1257;138780;-61
2023/10/18 18:31:47;;;;;;;42.00;27.60;;;;;;;1.55;74.17;99236.15;435348;1258;138852;-62
2023/10/18 18:41:53;;;;;;;43.20;31.80;;;;;;;1.36;74.86;99238.15;435278;1256;138861;-62
2023/10/18 18:51:59;;;;;;;53.90;37.90;;;;;;;1.19;75.79;99241.09;435974;1258;161494;-63
2023/10/18 19:02:09;;;;;;;52.20;37.20;;;;;;;1.04;76.64;99236.53;435718;1258;138589;-62
2023/10/18 19:12:15;;;;;;;58.30;48.50;;;;;;;0.87;77.16;99224.80;435212;1258;139648;-61
2023/10/18 19:22:21;;;;;;;60.60;41.90;;;;;;;0.74;77.96;99219.16;435495;1256;139102;-60
2023/10/18 19:32:27;;;;;;;82.90;58.10;;;;;;;0.62;78.55;99208.50;435598;1254;138833;-61
2023/10/18 19:42:33;;;;;;;81.00;57.10;;;;;;;0.46;78.50;99205.83;435847;1258;139169;-60
2023/10/18 19:52:39;;;;;;;73.00;58.00;;;;;;;0.33;78.64;99205.52;435469;1256;138703;-60
2023/10/18 20:02:45;;;;;;;74.30;53.50;;;;;;;0.20;79.21;99198.98;435232;1254;139736;-61
2023/10/18 20:12:51;;;;;;;84.90;61.80;;;;;;;0.07;79.28;99190.73;435449;1259;141069;-60
2023/10/18 20:22:59;;;;;;;95.10;69.50;;;;;;;-0.03;80.00;99185.85;435448;1258;139680;-60
2023/10/18 20:33:08;;;;;;;111.90;83.40;;;;;;;-0.14;80.55;99174.92;436127;1257;141831;-62
2023/10/18 20:43:18;;;;;;;108.60;78.80;;;;;;;-0.24;81.12;99166.96;435706;1258;139486;-61
2023/10/18 20:53:24;;;;;;;128.90;91.50;;;;;;;-0.35;81.40;99160.54;435898;1258;139607;-61
2023/10/18 21:03:34;;;;;;;94.30;66.30;;;;;;;-0.46;82.24;99159.95;435614;1258;139021;-61
2023/10/18 21:13:41;;;;;;;98.70;72.10;;;;;;;-0.42;84.48;99150.73;435570;1258;139932;-60
2023/10/18 21:23:47;;;;;;;109.90;81.00;;;;;;;-0.35;85.30;99145.73;435898;1258;139000;-62
2023/10/18 21:33:54;;;;;;;118.20;85.50;;;;;;;-0.48;84.48;99146.41;435626;1259;139057;-60
2023/10/18 21:44:00;;;;;;;106.20;81.70;;;;;;;-0.60;84.28;99139.67;435196;1254;139838;-62
2023/10/18 21:54:06;;;;;;;106.60;80.00;;;;;;;-0.69;84.69;99130.08;435542;1259;139146;-61
2023/10/18 22:04:12;;;;;;;103.40;74.90;;;;;;;-0.77;84.45;99123.77;435967;1254;139942;-61
2023/10/18 22:14:18;;;;;;;102.50;74.10;;;;;;;-0.83;85.54;99111.86;435319;1260;139142;-61
2023/10/18 22:24:28;;;;;;;80.00;56.20;;;;;;;-0.73;87.29;99105.27;435332;1258;140726;-61
2023/10/18 22:34:34;;;;;;;94.60;69.00;;;;;;;-0.59;88.51;99098.55;435441;1257;139020;-61
2023/10/18 22:44:41;;;;;;;70.10;52.20;;;;;;;-0.48;89.31;99084.34;435066;1257;138952;-59
2023/10/18 22:54:47;;;;;;;66.90;48.80;;;;;;;-0.34;90.29;99068.65;435801;1257;139986;-59
2023/10/18 23:04:54;;;;;;;;;;;;;;;-0.11;91.47;99055.63;435320;1257;141192;-59
2023/10/18 23:15:18;;;;;;;;;;;;;;;0.20;92.53;99039.57;435461;1257;125075;-59
2023/10/18 23:35:48;;;;;;;46.80;33.60;;;;;;;0.57;92.36;99013.46;435435;1254;139101;-60
2023/10/18 23:45:56;;;;;;;47.10;35.40;;;;;;;0.58;91.87;99005.17;435613;1254;139452;-59
2023/10/18 23:56:10;;;;;;;40.80;30.70;;;;;;;0.66;92.23;99001.11;435867;1257;138855;-59
